Time;durP1;ratioP1;P1;durP2;ratioP2;P2;SDS_P1;SDS_P2;PMS_P1;PMS_P2;Temp;Humidity;BMP_temperature;BMP_pressure;BME280_temperature;BME280_humidity;BME280_pressure;Samples;Min_cycle;Max_cycle;Signal;HPM_P1;HPM_P2
2022/02/27 00:02:22;;;;;;;14.83;3.27;;;-0.30;99.90;;;;;;4975285;28;20610;-73
2022/02/27 00:04:48;;;;;;;6.67;3.20;;;-0.30;99.90;;;;;;4974701;28;20175;-73
2022/02/27 00:07:13;;;;;;;6.13;2.80;;;-0.30;99.90;;;;;;4974472;28;20531;-74
2022/02/27 00:09:39;;;;;;;5.73;3.40;;;-0.30;99.90;;;;;;4975162;28;20546;-74
2022/02/27 00:12:05;;;;;;;8.63;3.33;;;-0.40;99.90;;;;;;4974732;28;20438;-73
2022/02/27 00:14:30;;;;;;;11.40;4.10;;;-0.40;99.90;;;;;;4974232;28;20187;-73
2022/02/27 00:16:56;;;;;;;12.37;3.37;;;-0.40;99.90;;;;;;4974590;28;20924;-74
2022/02/27 00:19:23;;;;;;;5.57;3.60;;;-0.40;99.90;;;;;;4974949;28;20176;-74
2022/02/27 00:21:49;;;;;;;4.33;3.33;;;-0.50;99.90;;;;;;4974678;28;20227;-73
2022/02/27 00:24:15;;;;;;;14.13;3.50;;;-0.50;99.90;;;;;;4991575;28;20480;-73
2022/02/27 00:26:41;;;;;;;6.90;3.60;;;-0.50;99.90;;;;;;4974940;28;20483;-74
2022/02/27 00:29:06;;;;;;;7.83;3.00;;;-0.50;99.90;;;;;;4974124;28;20404;-73
2022/02/27 00:31:32;;;;;;;6.80;3.70;;;-0.60;99.90;;;;;;4973509;28;20223;-74
2022/02/27 00:33:58;;;;;;;10.10;3.60;;;-0.60;99.90;;;;;;4974192;28;20189;-74
2022/02/27 00:36:23;;;;;;;8.33;3.87;;;-0.70;99.90;;;;;;4974524;28;20183;-74
2022/02/27 00:38:49;;;;;;;9.77;3.73;;;-0.60;99.90;;;;;;4975118;28;20213;-74
2022/02/27 00:41:14;;;;;;;7.40;3.17;;;-0.60;99.90;;;;;;4958352;28;20203;-74
2022/02/27 00:43:40;;;;;;;9.40;4.00;;;-0.70;99.90;;;;;;4973683;28;20601;-74
2022/02/27 00:46:06;;;;;;;12.57;3.50;;;-0.70;99.90;;;;;;4974323;28;20187;-73
2022/02/27 00:48:32;;;;;;;10.30;3.93;;;-0.70;99.90;;;;;;4974643;28;20180;-74
2022/02/27 00:50:58;;;;;;;9.77;3.80;;;-0.70;99.90;;;;;;4958089;28;20478;-73
2022/02/27 00:53:23;;;;;;;9.77;4.20;;;-0.70;99.90;;;;;;4973783;28;20498;-74
2022/02/27 00:55:49;;;;;;;14.10;5.30;;;-0.70;99.90;;;;;;4974284;28;20548;-73
2022/02/27 00:58:15;;;;;;;13.27;3.90;;;-0.80;99.90;;;;;;4973928;28;20182;-74
2022/02/27 05:30:50;;;;;;;8.90;3.20;;;-2.40;99.90;;;;;;6082478;22;20374;-71
2022/02/27 05:33:16;;;;;;;8.17;3.50;;;-2.40;99.90;;;;;;4994689;28;20428;-73
2022/02/27 05:35:41;;;;;;;4.50;2.93;;;-2.40;99.90;;;;;;5009353;28;20396;-73
2022/02/27 05:38:07;;;;;;;10.57;3.60;;;-2.50;99.90;;;;;;5010292;28;20176;-75
2022/02/27 05:40:32;;;;;;;3.60;2.20;;;-2.40;99.90;;;;;;4999954;28;20185;-73
2022/02/27 05:42:57;;;;;;;7.77;3.80;;;-2.50;99.90;;;;;;4959349;28;20598;-74
2022/02/27 05:45:23;;;;;;;14.93;4.57;;;-2.50;99.90;;;;;;4952404;29;20182;-74
2022/02/27 05:47:48;;;;;;;18.30;3.37;;;-2.50;99.90;;;;;;4952688;29;20189;-74
2022/02/27 05:50:14;;;;;;;16.77;3.80;;;-2.50;99.90;;;;;;4952283;29;20190;-74
2022/02/27 05:52:40;;;;;;;4.93;3.80;;;-2.50;99.90;;;;;;4951877;28;20332;-74
2022/02/27 05:55:06;;;;;;;5.50;2.87;;;-2.50;99.90;;;;;;4951719;29;20190;-75
2022/02/27 05:57:31;;;;;;;5.93;3.10;;;-2.50;99.90;;;;;;4952077;28;20182;-74
2022/02/27 05:59:57;;;;;;;4.20;2.90;;;-2.50;99.90;;;;;;4952445;29;20413;-76
2022/02/27 06:02:22;;;;;;;4.50;2.47;;;-2.50;99.90;;;;;;4950574;28;20721;-75
2022/02/27 06:04:48;;;;;;;7.00;3.30;;;-2.50;99.90;;;;;;4951329;29;20181;-75
2022/02/27 06:07:14;;;;;;;11.43;4.10;;;-2.40;99.90;;;;;;4951746;28;20170;-74
2022/02/27 06:09:39;;;;;;;10.93;4.07;;;-2.40;99.90;;;;;;4951936;29;20426;-75
2022/02/27 06:12:05;;;;;;;12.60;3.60;;;-2.40;99.90;;;;;;4951648;28;20245;-75
2022/02/27 06:14:30;;;;;;;8.27;3.40;;;-2.40;99.90;;;;;;4951910;28;20186;-74
2022/02/27 06:16:56;;;;;;;7.30;3.17;;;-2.40;99.90;;;;;;4953035;29;20479;-75
2022/02/27 06:19:21;;;;;;;8.13;3.80;;;-2.30;99.90;;;;;;4951788;29;20232;-75
2022/02/27 06:21:47;;;;;;;8.80;2.87;;;-2.40;99.90;;;;;;4951451;28;20289;-75
2022/02/27 06:24:12;;;;;;;5.67;2.83;;;-2.40;99.90;;;;;;4951188;29;20639;-74
2022/02/27 06:26:38;;;;;;;7.50;3.33;;;-2.40;99.90;;;;;;4951673;29;20732;-75
2022/02/27 06:29:04;;;;;;;4.60;3.70;;;-2.30;99.90;;;;;;4951838;28;20662;-75
2022/02/27 06:31:30;;;;;;;4.90;3.20;;;-2.30;99.90;;;;;;4954492;28;20218;-74
2022/02/27 06:33:56;;;;;;;9.43;4.20;;;-2.30;99.90;;;;;;4954309;28;20170;-75
2022/02/27 06:36:22;;;;;;;6.53;3.27;;;-2.20;99.90;;;;;;4955071;29;20479;-75
2022/02/27 06:38:47;;;;;;;5.20;3.30;;;-2.20;99.90;;;;;;4954837;29;20229;-75
2022/02/27 06:41:15;;;;;;;4.33;3.30;;;-2.20;99.90;;;;;;4955138;28;20243;-75
2022/02/27 06:43:40;;;;;;;5.30;3.33;;;-2.10;99.90;;;;;;4954819;28;20185;-74
2022/02/27 06:46:06;;;;;;;10.20;4.37;;;-2.00;99.90;;;;;;4954564;28;20824;-75
2022/02/27 06:48:32;;;;;;;14.03;4.90;;;-2.00;99.90;;;;;;4955095;28;20483;-75
2022/02/27 06:50:58;;;;;;;12.50;4.00;;;-1.90;99.90;;;;;;4954808;28;20194;-75
2022/02/27 06:53:23;;;;;;;10.30;4.50;;;-1.90;99.90;;;;;;4954064;28;20217;-75
2022/02/27 06:55:50;;;;;;;10.07;4.20;;;-1.80;99.90;;;;;;4954601;29;20242;-75
2022/02/27 06:58:16;;;;;;;13.20;3.70;;;-1.70;99.90;;;;;;4954764;28;20220;-75
2022/02/27 07:00:42;;;;;;;9.23;4.30;;;-1.60;99.90;;;;;;4954565;28;20908;-75
2022/02/27 07:03:07;;;;;;;11.30;4.10;;;-1.50;99.90;;;;;;4952932;28;20428;-74
2022/02/27 07:05:33;;;;;;;10.23;4.50;;;-1.50;99.90;;;;;;4954096;28;20184;-75
2022/02/27 07:07:58;;;;;;;6.50;4.00;;;-1.30;99.90;;;;;;4974038;28;20599;-75
2022/02/27 07:10:24;;;;;;;10.37;4.93;;;-1.20;99.90;;;;;;4973794;28;20194;-75
2022/02/27 07:12:51;;;;;;;10.80;4.40;;;-1.00;99.90;;;;;;4973165;28;20753;-75
2022/02/27 07:15:18;;;;;;;8.47;3.47;;;-0.90;99.90;;;;;;4973405;28;20175;-75
2022/02/27 07:17:43;;;;;;;13.20;5.37;;;-0.70;99.90;;;;;;4973672;28;20388;-75
2022/02/27 07:20:09;;;;;;;9.23;4.97;;;-0.60;99.90;;;;;;4973960;28;20468;-75
2022/02/27 07:22:36;;;;;;;9.67;5.43;;;-0.20;99.90;;;;;;4973317;28;20600;-74
2022/02/27 07:25:04;;;;;;;8.10;4.70;;;0.10;99.90;;;;;;4972827;28;20400;-75
2022/02/27 07:27:31;;;;;;;11.47;5.10;;;1.00;99.90;;;;;;4973398;28;20430;-75
2022/02/27 07:29:56;;;;;;;9.80;4.57;;;2.70;99.90;;;;;;4973586;28;20417;-75
2022/02/27 07:32:22;;;;;;;12.93;4.53;;;5.10;99.90;;;;;;4972545;28;20561;-76
2022/02/27 07:34:47;;;;;;;6.53;4.07;;;6.90;99.90;;;;;;4972911;28;20178;-76
2022/02/27 07:37:13;;;;;;;12.67;4.63;;;8.20;99.90;;;;;;4973443;28;20178;-76
2022/02/27 07:39:39;;;;;;;10.17;4.70;;;8.90;99.90;;;;;;4971905;28;20715;-74
2022/02/27 07:42:05;;;;;;;10.70;4.60;;;9.80;99.90;;;;;;4972741;28;20196;-74
2022/02/27 07:44:30;;;;;;;9.33;4.37;;;10.60;99.90;;;;;;4970548;28;20427;-72
2022/02/27 07:46:56;;;;;;;11.10;5.37;;;11.50;99.90;;;;;;4973103;28;20267;-74
2022/02/27 07:49:22;;;;;;;9.27;4.63;;;12.10;99.90;;;;;;4973000;28;20526;-74
2022/02/27 07:51:47;;;;;;;7.23;4.50;;;12.00;99.90;;;;;;4972999;28;20207;-73
2022/02/27 07:54:13;;;;;;;6.10;4.53;;;12.40;99.90;;;;;;4972675;28;20227;-72
2022/02/27 07:56:38;;;;;;;9.70;5.80;;;12.50;99.90;;;;;;4972016;28;20271;-73
2022/02/27 07:59:04;;;;;;;8.90;5.20;;;12.40;99.90;;;;;;4973126;28;20176;-72
2022/02/27 08:01:30;;;;;;;9.23;6.20;;;12.10;99.90;;;;;;4972688;28;20718;-75
2022/02/27 08:03:56;;;;;;;9.13;5.37;;;11.60;99.90;;;;;;4972572;28;20186;-76
2022/02/27 08:06:22;;;;;;;10.10;4.93;;;10.90;99.90;;;;;;4972819;28;20269;-75
2022/02/27 08:08:47;;;;;;;13.50;6.77;;;10.40;99.90;;;;;;4972474;28;20510;-75
2022/02/27 08:11:13;;;;;;;9.47;6.20;;;10.10;99.90;;;;;;4972775;28;20204;-74
2022/02/27 08:13:39;;;;;;;17.17;6.53;;;10.00;99.90;;;;;;4970698;28;20193;-75
2022/02/27 08:16:05;;;;;;;8.00;6.23;;;9.60;99.90;;;;;;4972688;28;20414;-75
2022/02/27 08:18:30;;;;;;;10.70;6.00;;;9.40;99.90;;;;;;4972552;28;20244;-74
2022/02/27 08:20:57;;;;;;;12.67;6.00;;;9.70;99.90;;;;;;4972665;28;20733;-75
2022/02/27 08:23:23;;;;;;;8.90;5.33;;;9.50;99.90;;;;;;4970204;28;20578;-75
2022/02/27 08:25:49;;;;;;;9.50;5.77;;;9.20;99.90;;;;;;4972499;28;20392;-75
2022/02/27 08:28:16;;;;;;;9.10;5.50;;;9.10;99.90;;;;;;4972346;28;20388;-75
2022/02/27 08:30:42;;;;;;;8.30;4.90;;;8.90;99.90;;;;;;4972274;28;20478;-75
2022/02/27 08:33:08;;;;;;;12.27;6.00;;;9.00;99.90;;;;;;4971885;28;20558;-76
2022/02/27 08:35:34;;;;;;;9.93;5.60;;;9.10;99.90;;;;;;4972071;28;20943;-74
2022/02/27 08:38:00;;;;;;;11.27;5.33;;;9.10;99.90;;;;;;4972420;28;20191;-75
2022/02/27 08:40:25;;;;;;;8.27;5.37;;;9.20;99.90;;;;;;4972014;28;20412;-75
2022/02/27 08:42:57;;;;;;;7.37;5.83;;;9.10;99.90;;;;;;4971611;28;20433;-75
2022/02/27 08:45:23;;;;;;;4.70;3.90;;;9.30;99.90;;;;;;4971913;28;20252;-75
2022/02/27 08:47:49;;;;;;;15.83;5.27;;;9.30;99.90;;;;;;4972399;28;20906;-75
2022/02/27 08:50:15;;;;;;;9.30;5.20;;;9.30;99.90;;;;;;4971998;28;20420;-74
2022/02/27 08:52:41;;;;;;;6.87;4.77;;;9.60;99.90;;;;;;4971159;28;20515;-75
2022/02/27 08:55:08;;;;;;;6.97;4.90;;;9.60;99.90;;;;;;4970724;28;20699;-75
2022/02/27 08:57:34;;;;;;;11.23;4.93;;;9.60;99.90;;;;;;4970197;28;20408;-75
2022/02/27 08:59:59;;;;;;;7.33;5.20;;;9.50;99.90;;;;;;4971391;28;20472;-75
2022/02/27 09:02:25;;;;;;;10.70;6.03;;;8.90;99.90;;;;;;4970988;28;20422;-75
2022/02/27 09:04:51;;;;;;;16.13;5.90;;;9.10;99.90;;;;;;4971365;28;20415;-74
2022/02/27 09:07:17;;;;;;;8.43;5.50;;;9.30;99.90;;;;;;4970906;28;20464;-75
2022/02/27 09:09:43;;;;;;;9.40;5.40;;;9.50;99.90;;;;;;4970848;28;20212;-73
2022/02/27 09:12:09;;;;;;;8.50;4.87;;;9.50;99.90;;;;;;4971562;28;20925;-72
2022/02/27 09:14:37;;;;;;;10.60;5.13;;;9.80;99.90;;;;;;4902227;28;20960;-75
2022/02/27 09:17:03;;;;;;;9.17;5.20;;;9.60;99.90;;;;;;4862543;28;20574;-74
2022/02/27 09:19:29;;;;;;;11.77;5.30;;;9.60;99.90;;;;;;4853447;28;20397;-74
2022/02/27 09:21:55;;;;;;;10.77;5.27;;;9.60;99.90;;;;;;4852755;28;20898;-74
2022/02/27 09:24:27;;;;;;;7.20;4.70;;;9.90;99.90;;;;;;4847692;28;20425;-79
2022/02/27 09:26:58;;;;;;;9.70;5.23;;;9.80;99.90;;;;;;4885561;28;20639;-78
2022/02/27 09:30:04;;;;;;;8.77;4.17;;;10.00;99.90;;;;;;4887338;28;20608;-77
2022/02/27 09:32:41;;;;;;;9.43;4.23;;;9.90;99.90;;;;;;4893548;28;20911;-80
2022/02/27 09:35:23;;;;;;;8.60;4.00;;;10.30;99.90;;;;;;4891733;28;20608;-84
2022/02/27 09:37:49;;;;;;;8.20;4.20;;;10.00;99.90;;;;;;4887238;28;21039;-78
2022/02/27 09:40:15;;;;;;;5.33;3.43;;;10.00;99.90;;;;;;4867049;28;20725;-81
2022/02/27 09:42:41;;;;;;;4.87;3.80;;;10.00;99.90;;;;;;4858452;28;20780;-81
2022/02/27 09:45:07;;;;;;;9.40;3.63;;;10.00;99.90;;;;;;4872737;28;20441;-81
2022/02/27 09:47:33;;;;;;;6.07;5.17;;;10.00;99.90;;;;;;4877647;28;20803;-81
2022/02/27 09:50:01;;;;;;;8.23;4.20;;;10.10;99.90;;;;;;4879729;28;20568;-79
2022/02/27 09:52:27;;;;;;;4.50;3.30;;;10.10;99.90;;;;;;4877545;28;20501;-81
2022/02/27 09:54:56;;;;;;;5.73;3.53;;;9.30;99.90;;;;;;4886412;28;20786;-81
2022/02/27 09:57:23;;;;;;;6.40;4.20;;;9.50;99.90;;;;;;4866618;28;20613;-81
2022/02/27 09:59:50;;;;;;;5.93;4.33;;;9.80;99.90;;;;;;4873370;28;20599;-80
2022/02/27 10:02:16;;;;;;;5.90;3.97;;;9.50;99.90;;;;;;4873391;28;20765;-82
2022/02/27 10:04:44;;;;;;;4.60;3.60;;;9.50;99.90;;;;;;4878834;28;20902;-80
2022/02/27 10:07:12;;;;;;;3.87;3.40;;;9.70;99.90;;;;;;4881300;28;20994;-81
2022/02/27 10:09:40;;;;;;;6.10;4.77;;;9.60;99.90;;;;;;4882225;28;20710;-79
2022/02/27 10:12:16;;;;;;;4.13;2.90;;;9.80;99.90;;;;;;4881147;28;20770;-78
2022/02/27 10:14:54;;;;;;;3.40;2.90;;;9.90;99.90;;;;;;4884356;28;20413;-79
2022/02/27 10:18:14;;;;;;;4.70;2.90;;;9.60;99.90;;;;;;4910107;28;20564;-81
2022/02/27 10:20:41;;;;;;;5.17;3.20;;;9.30;99.90;;;;;;4887492;28;20423;-79
2022/02/27 10:23:07;;;;;;;4.10;2.60;;;9.20;99.90;;;;;;4887200;28;20760;-81
2022/02/27 10:25:33;;;;;;;6.23;3.00;;;9.20;99.90;;;;;;4887277;28;20429;-81
2022/02/27 10:28:03;;;;;;;5.00;3.60;;;9.20;99.90;;;;;;4885607;28;20453;-78
2022/02/27 10:30:38;;;;;;;3.03;2.77;;;9.50;99.90;;;;;;4881672;28;20511;-78
2022/02/27 10:33:09;;;;;;;5.17;2.73;;;9.60;99.90;;;;;;4885271;28;20803;-78
2022/02/27 10:35:39;;;;;;;5.17;3.00;;;9.70;99.90;;;;;;4888327;28;20771;-78
2022/02/27 10:41:14;;;;;;;5.23;3.37;;;9.20;99.90;;;;;;4886213;28;20749;-77
2022/02/27 10:43:46;;;;;;;3.47;2.70;;;9.10;99.90;;;;;;4884608;28;20732;-78
2022/02/27 10:46:14;;;;;;;5.53;2.93;;;9.20;99.90;;;;;;4885304;28;20792;-78
2022/02/27 10:48:45;;;;;;;4.90;3.20;;;9.20;99.90;;;;;;4888936;28;20788;-77
2022/02/27 10:51:13;;;;;;;5.70;2.73;;;9.50;99.90;;;;;;4929293;28;20448;-73
2022/02/27 10:53:40;;;;;;;6.83;3.57;;;9.90;99.90;;;;;;4973865;28;20419;-74
2022/02/27 10:56:07;;;;;;;3.03;2.70;;;10.00;99.90;;;;;;4974444;28;20877;-75
2022/02/27 10:58:40;;;;;;;2.63;2.20;;;9.90;99.90;;;;;;4973662;28;20428;-75
2022/02/27 11:01:23;;;;;;;2.50;2.30;;;10.10;99.90;;;;;;4974445;28;20510;-75
2022/02/27 11:03:51;;;;;;;3.53;2.60;;;9.90;99.90;;;;;;4974141;28;20423;-74
2022/02/27 11:06:17;;;;;;;3.70;2.60;;;9.90;99.90;;;;;;4975049;28;20439;-75
2022/02/27 11:08:43;;;;;;;3.33;2.30;;;10.20;99.90;;;;;;4975059;28;20424;-74
2022/02/27 11:11:10;;;;;;;9.50;3.10;;;10.10;99.90;;;;;;4974888;28;20961;-74
2022/02/27 11:13:36;;;;;;;2.40;1.70;;;10.30;99.90;;;;;;4973575;28;20415;-75
2022/02/27 11:16:02;;;;;;;5.40;3.10;;;10.10;99.00;;;;;;4973370;28;20419;-75
2022/02/27 11:18:29;;;;;;;4.50;3.10;;;9.70;99.90;;;;;;4973900;28;20499;-74
2022/02/27 11:20:55;;;;;;;4.00;3.40;;;9.50;99.90;;;;;;4973354;28;20535;-74
2022/02/27 11:23:21;;;;;;;6.83;2.90;;;9.60;99.90;;;;;;4973332;28;20624;-74
2022/02/27 11:25:48;;;;;;;3.67;2.80;;;9.40;99.90;;;;;;4974089;28;20421;-74
2022/02/27 11:28:18;;;;;;;6.43;2.73;;;9.40;99.90;;;;;;4973725;28;20502;-74
2022/02/27 11:30:46;;;;;;;3.60;2.20;;;9.50;99.90;;;;;;4973760;28;20425;-76
2022/02/27 11:33:19;;;;;;;4.27;2.70;;;9.60;99.90;;;;;;4973514;28;21039;-74
2022/02/27 11:35:49;;;;;;;2.73;2.50;;;9.60;99.90;;;;;;4974419;28;20445;-75
2022/02/27 11:38:31;;;;;;;6.73;3.50;;;9.40;99.90;;;;;;4973922;28;20758;-76
2022/02/27 11:40:58;;;;;;;3.40;2.80;;;9.30;99.90;;;;;;4974073;28;20439;-75
2022/02/27 11:43:52;;;;;;;4.60;3.50;;;9.30;99.90;;;;;;4972778;28;20495;-75
2022/02/27 11:46:38;;;;;;;2.87;2.60;;;9.20;99.90;;;;;;4973447;28;20498;-76
2022/02/27 11:49:08;;;;;;;3.13;2.63;;;9.10;99.90;;;;;;4973272;28;20422;-75
2022/02/27 11:51:37;;;;;;;6.53;3.30;;;9.00;99.90;;;;;;4973121;28;20498;-75
2022/02/27 11:54:14;;;;;;;3.77;3.27;;;8.90;99.90;;;;;;4972294;28;20420;-75
2022/02/27 11:56:43;;;;;;;3.83;2.37;;;8.90;99.90;;;;;;4973043;28;20509;-75
2022/02/27 11:59:10;;;;;;;4.53;2.57;;;9.30;99.90;;;;;;4973133;28;20426;-73
2022/02/27 12:01:47;;;;;;;3.07;2.77;;;9.20;99.90;;;;;;4972856;28;20548;-76
2022/02/27 12:04:23;;;;;;;4.17;3.00;;;8.90;99.90;;;;;;4972274;28;20416;-75
2022/02/27 12:07:05;;;;;;;6.83;2.17;;;8.70;99.90;;;;;;4971980;28;20418;-75
2022/02/27 12:09:52;;;;;;;3.87;2.63;;;8.50;99.90;;;;;;4973065;28;20500;-74
2022/02/27 12:12:40;;;;;;;4.40;3.07;;;8.40;99.90;;;;;;4972972;28;20469;-75
2022/02/27 12:15:36;;;;;;;3.97;2.60;;;8.30;99.90;;;;;;4972497;28;20443;-75
2022/02/27 12:18:21;;;;;;;4.90;3.50;;;8.40;99.90;;;;;;4972399;28;20445;-75
2022/02/27 12:20:57;;;;;;;2.77;2.63;;;8.40;99.90;;;;;;4972476;28;20394;-77
2022/02/27 12:23:30;;;;;;;7.00;3.17;;;8.50;99.90;;;;;;4972058;28;20411;-76
2022/02/27 12:25:57;;;;;;;3.23;2.93;;;8.60;99.90;;;;;;4973261;28;20408;-76
2022/02/27 12:28:44;;;;;;;5.83;3.20;;;8.60;99.90;;;;;;4972478;28;20418;-77
2022/02/27 12:31:15;;;;;;;5.70;3.20;;;8.50;99.90;;;;;;4972337;28;20985;-76
2022/02/27 12:33:40;;;;;;;5.37;3.67;;;8.30;99.90;;;;;;4971867;28;20912;-76
2022/02/27 12:36:07;;;;;;;3.40;2.73;;;8.30;99.90;;;;;;4971617;28;20420;-77
2022/02/27 12:38:33;;;;;;;7.47;4.00;;;8.40;99.90;;;;;;4972091;28;20176;-77
2022/02/27 12:41:03;;;;;;;7.10;3.57;;;8.50;99.90;;;;;;4972420;28;20448;-76
2022/02/27 12:43:30;;;;;;;4.43;3.27;;;8.70;99.90;;;;;;4970061;28;20504;-76
2022/02/27 12:45:55;;;;;;;3.13;2.80;;;8.80;99.90;;;;;;4970974;28;20425;-77
2022/02/27 12:50:10;;;;;;;4.97;3.00;;;8.80;99.90;;;;;;4972184;28;20409;-78
2022/02/27 12:51:09;;;;;;;5.90;3.90;;;8.70;99.90;;;;;;4972025;28;20209;-75
2022/02/27 12:53:34;;;;;;;6.70;3.03;;;8.70;99.90;;;;;;4971454;28;20399;-76
2022/02/27 12:56:00;;;;;;;5.23;3.20;;;8.60;99.90;;;;;;4971763;28;20423;-77
2022/02/27 12:58:26;;;;;;;6.37;3.13;;;8.70;99.90;;;;;;4972292;28;20260;-77
2022/02/27 13:00:51;;;;;;;3.53;3.17;;;8.60;99.90;;;;;;4971406;28;20209;-77
2022/02/27 13:03:18;;;;;;;6.20;3.63;;;8.60;99.90;;;;;;4971142;28;20379;-76
2022/02/27 13:05:44;;;;;;;4.70;3.07;;;8.60;99.90;;;;;;4971936;28;20256;-76
2022/02/27 13:08:10;;;;;;;4.97;2.67;;;8.60;99.90;;;;;;4971400;28;20519;-76
2022/02/27 13:10:38;;;;;;;2.50;2.00;;;8.50;99.90;;;;;;4971766;28;20427;-75
2022/02/27 13:13:12;;;;;;;4.47;3.30;;;8.50;99.90;;;;;;4970084;28;20840;-74
2022/02/27 13:15:37;;;;;;;3.63;2.70;;;8.50;99.90;;;;;;4971704;28;20424;-76
2022/02/27 13:18:04;;;;;;;4.40;2.20;;;8.50;99.90;;;;;;4971539;28;20422;-76
2022/02/27 13:20:33;;;;;;;4.80;2.93;;;8.50;99.90;;;;;;4971461;28;20181;-76
2022/02/27 13:22:59;;;;;;;3.05;2.45;;;8.40;99.90;;;;;;4969779;28;20421;-76
2022/02/27 13:25:24;;;;;;;3.75;2.97;;;8.30;99.90;;;;;;4971373;28;20414;-76
2022/02/27 13:27:52;;;;;;;2.77;2.50;;;8.30;99.90;;;;;;4970958;28;20273;-77
2022/02/27 13:30:23;;;;;;;7.13;2.93;;;8.20;99.90;;;;;;4971282;28;20191;-76
2022/02/27 13:32:51;;;;;;;4.27;2.60;;;8.30;99.90;;;;;;4970837;28;20571;-76
2022/02/27 13:35:17;;;;;;;3.63;2.57;;;8.30;99.90;;;;;;4971593;28;20422;-76
2022/02/27 13:37:56;;;;;;;4.50;3.00;;;8.40;99.90;;;;;;4971436;28;20999;-77
2022/02/27 13:40:28;;;;;;;3.20;2.87;;;8.50;99.90;;;;;;4970893;28;20190;-77
2022/02/27 13:42:56;;;;;;;5.90;3.30;;;8.50;99.90;;;;;;4970982;28;20733;-76
2022/02/27 13:45:35;;;;;;;4.97;2.70;;;8.50;99.90;;;;;;4971503;28;20453;-77
2022/02/27 13:48:08;;;;;;;4.57;2.87;;;8.40;99.90;;;;;;4971231;28;20417;-76
2022/02/27 13:50:43;;;;;;;3.67;3.20;;;8.40;99.90;;;;;;4972020;28;20403;-76
2022/02/27 13:53:16;;;;;;;5.07;3.20;;;8.30;99.90;;;;;;4971218;28;20471;-75
2022/02/27 13:55:46;;;;;;;6.20;2.93;;;8.20;99.90;;;;;;4970753;28;20976;-76
2022/02/27 13:58:30;;;;;;;4.77;2.70;;;8.20;99.90;;;;;;4971072;28;20391;-75
2022/02/27 14:01:02;;;;;;;5.23;3.30;;;8.30;99.90;;;;;;4971540;28;20490;-76
2022/02/27 14:03:42;;;;;;;4.00;3.37;;;8.40;99.90;;;;;;4971528;28;20413;-77
2022/02/27 14:06:34;;;;;;;7.93;3.10;;;8.50;99.90;;;;;;4971034;28;20421;-76
2022/02/27 14:09:00;;;;;;;4.30;3.37;;;8.40;99.90;;;;;;4971526;28;20412;-74
2022/02/27 14:11:30;;;;;;;3.67;2.77;;;8.40;99.90;;;;;;4972295;28;20483;-77
2022/02/27 14:14:07;;;;;;;4.37;3.20;;;8.40;99.90;;;;;;4949719;28;20443;-80
2022/02/27 14:16:35;;;;;;;6.10;3.75;;;8.50;99.90;;;;;;4957663;28;20905;-77
2022/02/27 14:19:07;;;;;;;5.70;2.87;;;8.50;99.90;;;;;;4971407;28;20236;-78
2022/02/27 14:21:37;;;;;;;5.30;2.90;;;8.40;99.90;;;;;;4971448;28;20471;-76
2022/02/27 14:24:05;;;;;;;3.07;2.40;;;8.40;99.90;;;;;;4971103;28;20471;-77
2022/02/27 14:26:36;;;;;;;4.80;2.63;;;8.30;99.90;;;;;;4970440;28;20464;-76
2022/02/27 14:29:10;;;;;;;4.83;3.20;;;8.20;99.90;;;;;;4970273;28;20474;-76
2022/02/27 14:31:41;;;;;;;4.13;2.73;;;8.20;99.90;;;;;;4970503;28;20458;-76
2022/02/27 14:34:10;;;;;;;3.57;2.43;;;8.10;99.90;;;;;;4970542;28;20483;-76
2022/02/27 14:36:36;;;;;;;2.77;2.40;;;8.10;99.90;;;;;;4970744;28;20451;-77
2022/02/27 14:39:03;;;;;;;4.60;2.70;;;8.10;99.90;;;;;;4970361;28;20921;-76
2022/02/27 14:41:29;;;;;;;4.17;2.10;;;8.10;99.90;;;;;;4985459;28;20869;-76
2022/02/27 14:43:56;;;;;;;3.53;3.23;;;8.10;99.90;;;;;;4969546;28;20460;-76
2022/02/27 14:46:23;;;;;;;5.13;2.60;;;8.20;99.90;;;;;;4970659;28;20305;-76
2022/02/27 14:48:48;;;;;;;4.70;3.27;;;8.30;99.90;;;;;;4971160;28;20985;-76
2022/02/27 14:51:14;;;;;;;6.50;3.20;;;8.30;99.90;;;;;;4972747;28;20626;-75
2022/02/27 14:53:40;;;;;;;3.67;2.87;;;8.20;99.90;;;;;;4973537;28;20262;-77
2022/02/27 14:56:06;;;;;;;7.63;3.30;;;8.20;99.90;;;;;;4974412;28;20264;-77
2022/02/27 14:58:33;;;;;;;2.90;2.70;;;8.20;99.90;;;;;;4973290;28;20812;-76
2022/02/27 15:00:59;;;;;;;3.77;3.00;;;8.10;99.90;;;;;;4973694;28;20427;-76
2022/02/27 15:03:25;;;;;;;2.97;2.20;;;8.10;99.90;;;;;;4972949;28;20452;-75
2022/02/27 15:05:51;;;;;;;4.47;3.90;;;8.10;99.90;;;;;;4973999;28;20465;-76
2022/02/27 15:08:17;;;;;;;4.60;2.80;;;8.10;99.90;;;;;;4974024;28;20227;-76
2022/02/27 15:10:43;;;;;;;9.33;5.80;;;8.00;99.90;;;;;;4973374;28;20284;-76
2022/02/27 15:13:09;;;;;;;6.43;4.30;;;8.00;99.90;;;;;;4972798;28;20944;-75
2022/02/27 15:15:35;;;;;;;2.20;1.87;;;8.00;99.90;;;;;;4973307;28;20263;-76
2022/02/27 15:18:00;;;;;;;4.50;2.73;;;8.00;99.90;;;;;;4973502;28;20610;-76
2022/02/27 15:20:28;;;;;;;6.13;3.57;;;8.00;99.90;;;;;;4973454;28;20493;-76
2022/02/27 15:22:57;;;;;;;5.87;2.83;;;8.00;99.90;;;;;;4972831;28;20220;-74
2022/02/27 15:25:23;;;;;;;5.13;3.00;;;8.00;99.90;;;;;;4973283;28;20910;-76
2022/02/27 15:27:48;;;;;;;4.40;2.77;;;8.00;99.90;;;;;;4972437;28;20527;-76
2022/02/27 15:30:14;;;;;;;4.60;3.30;;;8.00;99.90;;;;;;4972820;28;20472;-76
2022/02/27 15:32:39;;;;;;;4.60;3.27;;;8.00;99.90;;;;;;4973166;28;20307;-75
2022/02/27 15:35:06;;;;;;;5.80;3.43;;;7.90;99.90;;;;;;4972327;28;20350;-75
2022/02/27 15:37:31;;;;;;;7.30;2.50;;;7.90;99.90;;;;;;4974865;28;20200;-76
2022/02/27 15:39:57;;;;;;;8.23;3.50;;;7.80;99.90;;;;;;4976220;28;20887;-76
2022/02/27 15:42:22;;;;;;;7.80;3.63;;;7.80;99.90;;;;;;4972713;28;20696;-75
2022/02/27 15:44:49;;;;;;;6.00;2.90;;;7.80;99.90;;;;;;4972430;28;20221;-76
2022/02/27 15:47:16;;;;;;;5.27;2.97;;;7.70;99.90;;;;;;4972481;28;20704;-76
2022/02/27 15:49:41;;;;;;;5.97;3.17;;;7.60;99.90;;;;;;4971739;28;20462;-75
2022/02/27 15:52:07;;;;;;;4.53;2.67;;;7.60;99.90;;;;;;4971626;28;20460;-76
2022/02/27 15:54:32;;;;;;;4.33;2.90;;;7.50;99.90;;;;;;4971778;28;20801;-74
2022/02/27 15:56:59;;;;;;;3.47;2.50;;;7.50;99.90;;;;;;4971204;28;20328;-75
2022/02/27 15:59:25;;;;;;;2.93;2.70;;;7.50;99.90;;;;;;4972656;28;20234;-76
2022/02/27 16:01:51;;;;;;;5.43;2.57;;;7.50;99.90;;;;;;4972009;28;20449;-76
2022/02/27 16:04:18;;;;;;;2.80;2.50;;;7.40;99.90;;;;;;4972288;28;20447;-76
2022/02/27 16:06:45;;;;;;;3.45;2.80;;;7.40;99.90;;;;;;4972073;28;20906;-76
2022/02/27 16:09:10;;;;;;;2.40;2.17;;;7.30;99.90;;;;;;4972653;28;20213;-76
2022/02/27 16:11:36;;;;;;;5.70;2.63;;;7.30;99.90;;;;;;4972232;28;20463;-75
2022/02/27 16:14:01;;;;;;;6.40;3.17;;;7.20;99.90;;;;;;4971105;28;20249;-76
2022/02/27 16:16:48;;;;;;;3.17;2.87;;;7.20;99.90;;;;;;4907604;28;20537;-84
2022/02/27 16:19:32;;;;;;;;;;;;;;;;;;;;;
2022/02/27 16:22:07;;;;;;;4.00;3.47;;;7.20;99.90;;;;;;4891683;28;20602;-82
2022/02/27 16:25:03;;;;;;;4.23;3.10;;;7.10;99.90;;;;;;4887978;28;20919;-87
2022/02/27 16:27:30;;;;;;;7.13;3.80;;;7.10;99.90;;;;;;4897041;28;20869;-82
2022/02/27 16:30:16;;;;;;;3.43;2.80;;;7.00;99.90;;;;;;4899816;28;20636;-82
2022/02/27 16:33:04;;;;;;;7.90;3.93;;;7.00;99.90;;;;;;4899538;28;21343;-82
2022/02/27 16:35:30;;;;;;;4.23;2.80;;;6.90;99.90;;;;;;4883999;28;20444;-82
2022/02/27 16:38:06;;;;;;;3.90;2.80;;;6.90;99.90;;;;;;4905648;28;20741;-82
2022/02/27 16:40:48;;;;;;;4.03;2.47;;;6.80;99.90;;;;;;4899011;28;20437;-80
2022/02/27 16:43:20;;;;;;;4.47;3.00;;;6.80;99.90;;;;;;4905752;28;20765;-80
2022/02/27 16:45:52;;;;;;;4.50;3.03;;;6.70;99.90;;;;;;4897607;28;21033;-82
2022/02/27 16:48:19;;;;;;;5.13;3.87;;;6.70;99.90;;;;;;4920347;28;20589;-79
2022/02/27 16:50:46;;;;;;;3.70;3.20;;;6.70;99.90;;;;;;4910771;28;20431;-76
2022/02/27 16:53:13;;;;;;;5.70;3.20;;;6.60;99.90;;;;;;4920557;28;20437;-77
2022/02/27 16:55:39;;;;;;;7.93;4.67;;;6.50;99.90;;;;;;4926966;28;21040;-75
2022/02/27 16:58:05;;;;;;;7.10;3.77;;;6.50;99.90;;;;;;4921826;28;20472;-79
2022/02/27 17:00:30;;;;;;;11.93;5.17;;;6.50;99.90;;;;;;4919466;28;20878;-78
2022/02/27 17:02:57;;;;;;;9.73;4.60;;;6.40;99.90;;;;;;4915937;28;20452;-77
2022/02/27 17:05:23;;;;;;;8.33;4.50;;;6.40;99.90;;;;;;4941742;28;20329;-78
2022/02/27 17:07:49;;;;;;;6.87;3.50;;;6.30;99.90;;;;;;4930905;28;20713;-80
2022/02/27 17:10:15;;;;;;;4.50;3.30;;;6.30;99.90;;;;;;4924027;28;20730;-79
2022/02/27 17:12:41;;;;;;;3.53;3.23;;;6.20;99.90;;;;;;4914044;28;20221;-78
2022/02/27 17:15:08;;;;;;;5.53;3.80;;;6.20;99.90;;;;;;4912928;28;20472;-79
2022/02/27 17:17:34;;;;;;;4.23;3.50;;;6.20;99.90;;;;;;4929011;28;20195;-78
2022/02/27 17:20:00;;;;;;;4.20;3.80;;;6.10;99.90;;;;;;4930051;28;20951;-78
2022/02/27 17:22:29;;;;;;;5.77;4.73;;;6.10;99.90;;;;;;4941457;28;20255;-79
2022/02/27 17:24:55;;;;;;;6.20;3.90;;;6.00;99.90;;;;;;4907629;28;20600;-83
2022/02/27 17:27:21;;;;;;;4.30;3.60;;;6.00;99.90;;;;;;4926138;28;20485;-79
2022/02/27 17:29:46;;;;;;;6.07;4.10;;;5.90;99.90;;;;;;4928306;28;20506;-82
2022/02/27 17:32:12;;;;;;;6.60;4.50;;;5.90;99.90;;;;;;4910076;28;20691;-73
2022/02/27 17:34:40;;;;;;;9.20;4.33;;;5.80;99.90;;;;;;4895482;28;20494;-73